createdAt,value
2019-03-26T00:00:47.749Z,92.10
2019-03-26T00:03:16.843Z,92.20
2019-03-26T00:05:46.072Z,92.30
2019-03-26T00:08:14.464Z,92.30
2019-03-26T00:10:43.514Z,92.40
2019-03-26T00:13:12.600Z,92.50
2019-03-26T00:15:41.639Z,92.60
2019-03-26T00:18:11.108Z,92.70
2019-03-26T00:20:39.752Z,92.80
2019-03-26T00:23:10.932Z,92.90
2019-03-26T00:25:39.539Z,92.90
2019-03-26T00:28:07.973Z,93.00
2019-03-26T00:30:36.984Z,93.30
2019-03-26T00:33:05.677Z,93.20
2019-03-26T00:35:34.340Z,93.30
2019-03-26T00:38:03.331Z,93.40
2019-03-26T00:40:32.153Z,93.50
2019-03-26T00:43:01.164Z,93.60
2019-03-26T00:45:30.115Z,93.70
2019-03-26T00:47:59.333Z,93.80
2019-03-26T00:50:28.603Z,93.90
2019-03-26T00:52:57.319Z,94.10
2019-03-26T00:55:26.597Z,94.10
2019-03-26T00:57:55.255Z,94.30
2019-03-26T01:00:38.291Z,94.50
2019-03-26T01:03:06.958Z,94.60
2019-03-26T01:05:35.929Z,94.70
2019-03-26T01:08:04.647Z,94.80
2019-03-26T01:10:33.759Z,94.90
2019-03-26T01:13:02.475Z,95.20
2019-03-26T01:15:31.767Z,95.00
2019-03-26T01:18:00.885Z,95.10
2019-03-26T01:20:29.847Z,95.20
2019-03-26T01:22:58.839Z,95.40
2019-03-26T01:25:27.739Z,95.60
2019-03-26T01:27:57.023Z,95.80
2019-03-26T01:30:25.840Z,95.80
2019-03-26T01:32:54.803Z,95.90
2019-03-26T01:35:24.009Z,96.10
2019-03-26T01:37:52.714Z,96.30
2019-03-26T01:40:21.895Z,96.40
2019-03-26T01:42:51.018Z,96.50
2019-03-26T01:45:20.271Z,96.70
2019-03-26T01:47:48.990Z,96.90
2019-03-26T01:50:18.170Z,96.90
2019-03-26T01:52:47.298Z,97.00
2019-03-26T01:55:15.958Z,97.10
2019-03-26T01:57:44.614Z,97.10
2019-03-26T02:00:13.656Z,97.30
2019-03-26T02:02:42.740Z,97.50
2019-03-26T02:05:11.619Z,97.50
2019-03-26T02:07:40.937Z,97.60
2019-03-26T02:10:10.867Z,97.80
2019-03-26T02:12:39.525Z,98.00
2019-03-26T02:15:10.738Z,98.10
2019-03-26T02:17:39.959Z,98.20
2019-03-26T02:20:08.723Z,98.20
2019-03-26T02:22:37.630Z,98.30
2019-03-26T02:25:06.971Z,98.40
2019-03-26T02:27:35.935Z,98.50
2019-03-26T02:30:04.904Z,98.60
2019-03-26T02:32:33.622Z,98.80
2019-03-26T02:35:17.073Z,98.80
2019-03-26T02:37:33.249Z,98.90
2019-03-26T02:40:02.233Z,99.00
2019-03-26T02:42:31.109Z,98.90
2019-03-26T02:44:59.917Z,99.00
2019-03-26T02:47:28.892Z,99.20
2019-03-26T02:49:57.920Z,99.40
2019-03-26T02:52:27.404Z,99.60
2019-03-26T02:54:56.379Z,99.40
2019-03-26T02:57:25.129Z,99.50
2019-03-26T02:59:53.857Z,99.70
2019-03-26T03:02:23.100Z,99.80
2019-03-26T03:04:52.043Z,99.90
2019-03-26T03:07:20.930Z,99.90
2019-03-26T03:09:49.856Z,99.90
2019-03-26T03:12:18.828Z,99.90
2019-03-26T03:14:48.048Z,99.90
2019-03-26T03:17:17.019Z,99.90
2019-03-26T03:19:46.340Z,99.90
2019-03-26T03:22:15.320Z,99.90
2019-03-26T03:24:44.609Z,99.90
2019-03-26T03:27:13.294Z,99.90
2019-03-26T03:29:42.008Z,99.90
2019-03-26T03:32:11.082Z,99.90
2019-03-26T03:34:40.193Z,99.90
2019-03-26T03:37:08.703Z,99.90
2019-03-26T03:39:37.256Z,99.90
2019-03-26T03:42:06.037Z,99.90
2019-03-26T03:44:45.976Z,99.90
2019-03-26T03:47:18.719Z,99.90
2019-03-26T03:49:50.130Z,99.90
2019-03-26T03:52:22.314Z,99.90
2019-03-26T03:54:53.909Z,99.90
2019-03-26T03:57:26.031Z,99.90
2019-03-26T03:59:57.053Z,99.90
2019-03-26T04:02:26.231Z,99.90
2019-03-26T04:04:55.315Z,99.90
2019-03-26T04:07:24.133Z,99.90
2019-03-26T04:09:53.101Z,99.90
2019-03-26T04:12:22.124Z,99.90
2019-03-26T04:14:51.170Z,99.90
2019-03-26T04:17:20.082Z,99.90
2019-03-26T04:19:48.795Z,99.90
2019-03-26T04:22:17.769Z,99.90
2019-03-26T04:24:46.769Z,99.90
2019-03-26T04:27:15.746Z,99.90
2019-03-26T04:29:44.744Z,99.90
2019-03-26T04:32:13.973Z,99.90
2019-03-26T04:34:42.938Z,99.90
2019-03-26T04:37:11.946Z,99.90
2019-03-26T04:39:41.073Z,99.90
2019-03-26T04:42:09.571Z,99.90
2019-03-26T04:44:38.411Z,99.90
2019-03-26T04:47:07.604Z,99.90
2019-03-26T04:49:35.885Z,99.90
2019-03-26T04:52:04.172Z,99.90
2019-03-26T04:54:32.411Z,99.90
2019-03-26T04:57:00.758Z,99.90
2019-03-26T04:59:28.986Z,99.90
2019-03-26T05:01:58.638Z,99.90
2019-03-26T05:04:26.868Z,99.90
2019-03-26T05:06:55.116Z,99.90
2019-03-26T05:09:23.427Z,99.90
2019-03-26T05:11:53.061Z,99.90
2019-03-26T05:14:21.383Z,99.90
2019-03-26T05:16:49.636Z,99.90
2019-03-26T05:19:18.024Z,99.90
2019-03-26T05:21:46.279Z,99.90
2019-03-26T05:24:14.515Z,99.90
2019-03-26T05:26:42.767Z,99.90
2019-03-26T05:29:11.191Z,99.90
2019-03-26T05:31:39.492Z,99.90
2019-03-26T05:34:07.739Z,99.90
2019-03-26T05:36:35.987Z,99.90
2019-03-26T05:39:05.572Z,99.90
2019-03-26T05:41:33.837Z,99.90
2019-03-26T05:44:02.061Z,99.90
2019-03-26T05:46:30.948Z,99.90
2019-03-26T05:48:59.195Z,99.90
2019-03-26T05:51:27.991Z,99.90
2019-03-26T05:53:56.531Z,99.90
2019-03-26T05:56:30.425Z,99.90
2019-03-26T05:58:57.612Z,99.90
2019-03-26T06:01:25.944Z,99.90
2019-03-26T06:03:54.183Z,99.90
2019-03-26T06:06:22.420Z,99.90
2019-03-26T06:08:50.658Z,99.90
2019-03-26T06:11:18.921Z,99.90
2019-03-26T06:13:47.143Z,99.90
2019-03-26T06:16:15.488Z,99.90
2019-03-26T06:18:43.737Z,99.90
2019-03-26T06:21:12.028Z,99.90
2019-03-26T06:23:40.293Z,99.90
2019-03-26T06:26:08.640Z,99.90
2019-03-26T06:28:36.863Z,99.90
2019-03-26T06:31:05.155Z,99.90
2019-03-26T06:33:33.563Z,99.00
2019-03-26T06:36:01.833Z,97.40
2019-03-26T06:38:30.055Z,96.80
2019-03-26T06:40:58.296Z,96.10
2019-03-26T06:43:26.559Z,95.10
2019-03-26T06:45:54.813Z,94.90
2019-03-26T06:48:23.059Z,94.30
2019-03-26T06:50:51.312Z,93.60
2019-03-26T06:53:19.543Z,94.00
2019-03-26T06:55:47.800Z,93.50
2019-03-26T06:58:16.092Z,92.40
2019-03-26T07:00:44.435Z,91.90
2019-03-26T07:03:12.660Z,92.00
2019-03-26T07:05:42.588Z,91.50
2019-03-26T07:08:10.903Z,91.60
2019-03-26T07:10:39.186Z,91.00
2019-03-26T07:13:07.880Z,90.60
2019-03-26T07:15:36.179Z,90.00
2019-03-26T07:18:04.407Z,88.30
2019-03-26T07:20:32.678Z,87.60
2019-03-26T07:23:01.036Z,86.80
2019-03-26T07:25:29.500Z,85.30
2019-03-26T07:27:58.322Z,83.40
2019-03-26T07:30:37.659Z,86.10
2019-03-26T07:33:05.883Z,88.30
2019-03-26T07:35:34.147Z,89.00
2019-03-26T07:38:02.532Z,89.10
2019-03-26T07:40:30.787Z,91.20
2019-03-26T07:42:59.064Z,91.20
2019-03-26T07:45:27.320Z,91.80
2019-03-26T07:47:55.892Z,91.90
2019-03-26T07:50:27.696Z,92.30
2019-03-26T07:52:56.819Z,91.60
2019-03-26T07:55:26.012Z,91.60
2019-03-26T07:57:54.652Z,91.00
2019-03-26T08:00:34.581Z,91.30
2019-03-26T08:03:06.152Z,92.20
2019-03-26T08:05:35.104Z,92.20
2019-03-26T08:08:03.991Z,92.90
2019-03-26T08:10:32.234Z,93.30
2019-03-26T08:13:00.581Z,92.90
2019-03-26T08:15:29.309Z,92.40
2019-03-26T08:17:57.620Z,92.50
2019-03-26T08:20:26.648Z,92.50
2019-03-26T08:22:55.739Z,93.00
2019-03-26T08:25:24.085Z,93.10
2019-03-26T08:27:52.304Z,93.60
2019-03-26T08:30:20.539Z,93.40
2019-03-26T08:32:48.848Z,93.20
2019-03-26T08:35:17.112Z,93.20
2019-03-26T08:37:45.659Z,93.00
2019-03-26T08:40:13.998Z,92.90
2019-03-26T08:42:42.231Z,93.40
2019-03-26T08:45:10.987Z,92.80
2019-03-26T08:47:39.223Z,92.80
2019-03-26T08:50:08.791Z,92.80
2019-03-26T08:52:37.008Z,92.60
2019-03-26T08:55:06.390Z,92.10
2019-03-26T08:57:45.268Z,91.30
2019-03-26T09:00:23.512Z,90.60
2019-03-26T09:03:01.857Z,89.90
2019-03-26T09:05:30.048Z,88.60
2019-03-26T09:07:58.359Z,90.20
2019-03-26T09:10:26.611Z,89.70
2019-03-26T09:12:59.961Z,87.60
2019-03-26T09:15:28.167Z,90.30
2019-03-26T09:17:56.538Z,91.60
2019-03-26T09:20:24.755Z,92.20
2019-03-26T09:22:53.074Z,92.70
2019-03-26T09:25:21.307Z,92.90
2019-03-26T09:27:52.341Z,92.90
2019-03-26T09:30:19.668Z,93.10
2019-03-26T09:32:47.979Z,92.80
2019-03-26T09:35:17.191Z,92.60
2019-03-26T09:37:45.459Z,93.30
2019-03-26T09:40:15.766Z,92.90
2019-03-26T09:42:44.039Z,91.90
2019-03-26T09:45:13.567Z,91.50
2019-03-26T09:47:54.058Z,91.70
2019-03-26T09:50:50.452Z,91.90
2019-03-26T09:53:18.256Z,92.20
2019-03-26T09:55:47.008Z,91.90
2019-03-26T09:58:15.459Z,91.80
2019-03-26T10:00:44.327Z,91.50
2019-03-26T10:03:16.453Z,91.40
2019-03-26T10:05:45.411Z,90.90
2019-03-26T10:08:17.562Z,90.10
2019-03-26T10:10:44.715Z,89.70
2019-03-26T10:13:13.052Z,87.80
2019-03-26T10:15:41.279Z,87.80
2019-03-26T10:18:09.574Z,88.00
2019-03-26T10:20:37.807Z,86.80
2019-03-26T10:23:06.052Z,83.60
2019-03-26T10:25:34.600Z,80.80
2019-03-26T10:28:02.851Z,81.60
2019-03-26T10:30:36.249Z,81.20
2019-03-26T10:33:04.771Z,80.50
2019-03-26T10:35:33.320Z,78.10
2019-03-26T10:38:01.701Z,79.90
2019-03-26T10:40:30.875Z,80.70
2019-03-26T10:42:59.457Z,81.10
2019-03-26T10:45:27.818Z,81.00
2019-03-26T10:47:56.139Z,79.90
2019-03-26T10:50:24.415Z,81.40
2019-03-26T10:52:52.681Z,83.10
2019-03-26T10:55:20.915Z,81.30
2019-03-26T10:57:49.220Z,80.40
2019-03-26T11:00:18.104Z,78.90
2019-03-26T11:02:46.459Z,76.60
2019-03-26T11:05:14.804Z,76.80
2019-03-26T11:07:43.080Z,73.50
2019-03-26T11:10:11.755Z,70.60
2019-03-26T11:12:40.016Z,69.00
2019-03-26T11:15:09.106Z,66.40
2019-03-26T11:17:37.414Z,65.20
2019-03-26T11:20:07.376Z,64.90
2019-03-26T11:22:37.427Z,65.00
2019-03-26T11:25:06.336Z,61.70
2019-03-26T11:27:34.753Z,62.40
2019-03-26T11:30:03.704Z,63.00
2019-03-26T11:32:31.964Z,66.00
2019-03-26T11:35:00.389Z,66.10
2019-03-26T11:37:28.768Z,66.20
2019-03-26T11:39:57.020Z,64.00
2019-03-26T11:42:25.232Z,65.70
2019-03-26T11:44:53.987Z,63.20
2019-03-26T11:47:22.210Z,62.90
2019-03-26T11:49:50.468Z,64.20
2019-03-26T11:52:18.696Z,64.30
2019-03-26T11:54:46.939Z,62.70
2019-03-26T11:57:15.209Z,63.20
2019-03-26T11:59:43.494Z,62.20
2019-03-26T12:02:11.931Z,62.20
2019-03-26T12:04:40.528Z,63.40
2019-03-26T12:07:08.775Z,63.20
2019-03-26T12:09:46.121Z,63.30
2019-03-26T12:12:08.175Z,64.80
2019-03-26T12:14:36.525Z,65.50
2019-03-26T12:17:04.763Z,64.50
2019-03-26T12:19:33.171Z,63.00
2019-03-26T12:22:01.415Z,62.40
2019-03-26T12:24:29.680Z,63.10
2019-03-26T12:26:57.934Z,64.70
2019-03-26T12:29:26.173Z,63.70
2019-03-26T12:31:54.401Z,64.60
2019-03-26T12:34:22.661Z,62.80
2019-03-26T12:36:50.920Z,64.00
2019-03-26T12:39:19.175Z,62.10
2019-03-26T12:41:47.527Z,62.00
2019-03-26T12:44:15.755Z,62.30
2019-03-26T12:46:44.000Z,62.70
2019-03-26T12:49:12.224Z,63.00
2019-03-26T12:51:40.705Z,63.20
2019-03-26T12:54:09.058Z,61.40
2019-03-26T12:56:38.174Z,61.60
2019-03-26T12:59:06.583Z,63.80
2019-03-26T13:01:34.833Z,60.60
2019-03-26T13:04:12.515Z,60.90
2019-03-26T13:06:33.223Z,61.70
2019-03-26T13:09:04.355Z,62.40
2019-03-26T13:11:32.630Z,60.80
2019-03-26T13:14:00.923Z,60.90
2019-03-26T13:16:29.180Z,61.30
2019-03-26T13:18:57.505Z,60.90
2019-03-26T13:21:25.743Z,60.80
2019-03-26T13:23:54.041Z,61.80
2019-03-26T13:26:23.016Z,61.90
2019-03-26T13:28:52.091Z,62.00
2019-03-26T13:31:20.340Z,61.80
2019-03-26T13:33:48.596Z,61.50
2019-03-26T13:36:16.864Z,61.20
2019-03-26T13:38:45.127Z,61.00
2019-03-26T13:41:13.631Z,59.20
2019-03-26T13:43:42.955Z,57.20
2019-03-26T13:46:14.834Z,56.50
2019-03-26T13:48:43.887Z,56.90
2019-03-26T13:51:12.119Z,57.80
2019-03-26T13:53:40.371Z,58.30
2019-03-26T13:56:08.630Z,58.50
2019-03-26T13:58:36.984Z,58.80
2019-03-26T14:01:05.243Z,59.00
2019-03-26T14:03:33.688Z,60.10
2019-03-26T14:06:02.508Z,60.50
2019-03-26T14:08:31.489Z,60.60
2019-03-26T14:11:00.471Z,57.50
2019-03-26T14:13:29.688Z,58.30
2019-03-26T14:15:58.322Z,58.80
2019-03-26T14:18:26.553Z,59.20
2019-03-26T14:20:54.828Z,60.00
2019-03-26T14:23:23.076Z,61.10
2019-03-26T14:25:51.328Z,59.20
2019-03-26T14:28:19.612Z,59.20
2019-03-26T14:30:47.856Z,59.10
2019-03-26T14:33:16.113Z,60.50
2019-03-26T14:35:44.356Z,60.10
2019-03-26T14:38:12.647Z,61.60
2019-03-26T14:40:53.537Z,62.80
2019-03-26T14:43:11.001Z,62.90
2019-03-26T14:45:42.178Z,61.30
2019-03-26T14:48:09.292Z,60.40
2019-03-26T14:50:37.568Z,60.80
2019-03-26T14:53:06.115Z,61.00
2019-03-26T14:55:34.393Z,61.10
2019-03-26T14:58:02.659Z,61.70
2019-03-26T15:00:31.091Z,61.80
2019-03-26T15:03:00.456Z,60.30
2019-03-26T15:05:29.127Z,59.90
2019-03-26T15:07:57.443Z,58.40
2019-03-26T15:10:25.865Z,58.80
2019-03-26T15:12:54.296Z,59.70
2019-03-26T15:15:22.579Z,59.90
2019-03-26T15:17:53.041Z,59.20
2019-03-26T15:20:21.272Z,59.80
2019-03-26T15:22:49.552Z,60.20
2019-03-26T15:25:17.787Z,60.00
2019-03-26T15:27:46.021Z,60.00
2019-03-26T15:30:14.963Z,60.30
2019-03-26T15:32:43.195Z,60.20
2019-03-26T15:35:11.437Z,60.10
2019-03-26T15:37:40.294Z,60.60
2019-03-26T15:40:09.255Z,61.20
2019-03-26T15:42:37.496Z,61.40
2019-03-26T15:45:06.715Z,61.00
2019-03-26T15:47:43.935Z,60.50
2019-03-26T15:50:28.744Z,60.20
2019-03-26T15:53:05.727Z,60.50
2019-03-26T15:55:34.223Z,60.70
2019-03-26T15:58:03.285Z,60.00
2019-03-26T16:00:32.360Z,59.70
2019-03-26T16:03:01.563Z,60.20
2019-03-26T16:05:29.859Z,60.40
2019-03-26T16:08:01.016Z,60.70
2019-03-26T16:10:29.260Z,60.70
2019-03-26T16:12:57.498Z,60.20
2019-03-26T16:15:25.758Z,60.40
2019-03-26T16:17:54.023Z,60.80
2019-03-26T16:20:22.256Z,60.40
2019-03-26T16:22:50.518Z,60.40
2019-03-26T16:25:19.421Z,60.70
2019-03-26T16:27:48.311Z,61.50
2019-03-26T16:30:18.091Z,61.60
2019-03-26T16:32:46.686Z,61.50
2019-03-26T16:35:15.883Z,60.60
2019-03-26T16:37:45.129Z,60.90
2019-03-26T16:40:14.284Z,61.20
2019-03-26T16:42:43.020Z,61.80
2019-03-26T16:45:12.151Z,62.40
2019-03-26T16:47:40.512Z,62.60
2019-03-26T16:50:09.113Z,62.30
2019-03-26T16:52:37.579Z,62.60
2019-03-26T16:55:06.604Z,62.60
2019-03-26T16:57:35.665Z,62.50
2019-03-26T17:00:05.044Z,62.80
2019-03-26T17:02:34.124Z,63.00
2019-03-26T17:05:03.184Z,62.80
2019-03-26T17:07:31.558Z,63.10
2019-03-26T17:10:00.860Z,62.80
2019-03-26T17:12:29.235Z,62.60
2019-03-26T17:14:58.244Z,63.20
2019-03-26T17:17:27.195Z,63.40
2019-03-26T17:19:55.708Z,64.30
2019-03-26T17:22:24.908Z,64.00
2019-03-26T17:24:53.463Z,63.10
2019-03-26T17:27:21.695Z,63.80
2019-03-26T17:29:49.959Z,63.60
2019-03-26T17:32:18.246Z,63.70
2019-03-26T17:34:46.469Z,63.80
2019-03-26T17:37:15.479Z,64.10
2019-03-26T17:39:45.577Z,64.30
2019-03-26T17:42:17.394Z,64.50
2019-03-26T17:44:43.874Z,64.30
2019-03-26T17:47:12.127Z,64.70
2019-03-26T17:49:40.395Z,64.90
2019-03-26T17:52:08.682Z,65.20
2019-03-26T17:54:36.886Z,65.20
2019-03-26T17:57:05.229Z,65.20
2019-03-26T17:59:33.519Z,65.60
2019-03-26T18:02:01.828Z,65.60
2019-03-26T18:04:31.492Z,65.70
2019-03-26T18:07:00.014Z,65.90
2019-03-26T18:09:28.325Z,65.80
2019-03-26T18:11:58.610Z,66.10
2019-03-26T18:14:27.563Z,66.30
2019-03-26T18:16:56.840Z,66.50
2019-03-26T18:19:25.839Z,66.40
2019-03-26T18:21:54.833Z,66.70
2019-03-26T18:24:26.155Z,66.70
2019-03-26T18:26:56.125Z,66.70
2019-03-26T18:29:24.469Z,67.10
2019-03-26T18:31:53.187Z,67.40
2019-03-26T18:34:22.163Z,67.90
2019-03-26T18:36:50.773Z,68.00
2019-03-26T18:39:19.212Z,68.30
2019-03-26T18:41:48.195Z,68.50
2019-03-26T18:44:16.880Z,68.70
2019-03-26T18:46:46.223Z,68.90
2019-03-26T18:49:15.063Z,68.90
2019-03-26T18:51:43.368Z,69.30
2019-03-26T18:54:11.642Z,69.40
2019-03-26T18:56:41.301Z,69.70
2019-03-26T18:59:10.243Z,70.00
2019-03-26T19:01:39.207Z,70.10
2019-03-26T19:04:08.195Z,70.30
2019-03-26T19:06:37.604Z,70.50
2019-03-26T19:09:07.116Z,70.70
2019-03-26T19:11:36.374Z,71.10
2019-03-26T19:14:04.813Z,71.60
2019-03-26T19:16:33.695Z,71.90
2019-03-26T19:19:02.790Z,72.10
2019-03-26T19:21:31.976Z,72.40
2019-03-26T19:24:04.512Z,72.80
2019-03-26T19:26:31.904Z,73.10
2019-03-26T19:29:01.471Z,73.50
2019-03-26T19:31:30.800Z,73.90
2019-03-26T19:33:59.464Z,74.20
2019-03-26T19:36:28.543Z,74.70
2019-03-26T19:38:57.580Z,75.30
2019-03-26T19:41:26.571Z,76.00
2019-03-26T19:43:55.276Z,76.60
2019-03-26T19:46:24.787Z,77.20
2019-03-26T19:48:53.678Z,77.80
2019-03-26T19:51:22.739Z,78.50
2019-03-26T19:53:51.735Z,78.90
2019-03-26T19:56:20.507Z,79.60
2019-03-26T19:58:49.487Z,80.20
2019-03-26T20:01:17.803Z,80.70
2019-03-26T20:03:49.215Z,81.10
2019-03-26T20:06:17.613Z,81.50
2019-03-26T20:08:46.543Z,81.90
2019-03-26T20:11:15.807Z,82.20
2019-03-26T20:13:45.016Z,82.70
2019-03-26T20:16:15.488Z,82.80
2019-03-26T20:18:43.951Z,83.10
2019-03-26T20:21:13.070Z,83.50
2019-03-26T20:23:42.133Z,83.50
2019-03-26T20:26:11.357Z,83.90
2019-03-26T20:28:40.422Z,84.10
2019-03-26T20:31:09.327Z,84.50
2019-03-26T20:33:38.137Z,84.80
2019-03-26T20:36:07.092Z,85.00
2019-03-26T20:38:37.511Z,85.30
2019-03-26T20:41:06.011Z,85.50
2019-03-26T20:43:37.406Z,85.90
2019-03-26T20:46:05.826Z,86.20
2019-03-26T20:48:34.724Z,86.50
2019-03-26T20:51:03.727Z,86.80
2019-03-26T20:53:32.983Z,87.90
2019-03-26T20:56:01.816Z,87.70
2019-03-26T20:58:30.716Z,87.90
2019-03-26T21:01:00.203Z,88.10
2019-03-26T21:03:29.407Z,89.00
2019-03-26T21:05:58.335Z,88.60
2019-03-26T21:08:27.075Z,89.00
2019-03-26T21:10:56.084Z,89.40
2019-03-26T21:13:25.085Z,89.70
2019-03-26T21:15:57.295Z,90.00
2019-03-26T21:18:24.331Z,90.10
2019-03-26T21:20:53.081Z,90.40
2019-03-26T21:23:22.380Z,90.50
2019-03-26T21:25:51.866Z,90.60
2019-03-26T21:28:23.566Z,90.70
2019-03-26T21:30:52.436Z,90.90
2019-03-26T21:33:21.403Z,91.10
2019-03-26T21:35:50.627Z,91.20
2019-03-26T21:38:19.911Z,91.30
2019-03-26T21:40:48.603Z,91.50
2019-03-26T21:43:17.903Z,91.70
2019-03-26T21:45:46.876Z,91.80
2019-03-26T21:48:16.911Z,91.90
2019-03-26T21:50:46.088Z,92.00
2019-03-26T21:53:14.875Z,92.10
2019-03-26T21:55:44.150Z,92.30
2019-03-26T21:58:12.868Z,92.50
2019-03-26T22:00:44.265Z,92.50
2019-03-26T22:03:12.696Z,92.80
2019-03-26T22:05:42.661Z,92.60
2019-03-26T22:08:11.280Z,92.60
2019-03-26T22:10:39.807Z,92.60
2019-03-26T22:13:08.614Z,92.70
2019-03-26T22:15:37.723Z,92.70
2019-03-26T22:18:06.315Z,92.80
2019-03-26T22:20:35.364Z,92.80
2019-03-26T22:23:04.951Z,92.80
2019-03-26T22:25:34.290Z,92.90
2019-03-26T22:28:02.937Z,93.00
2019-03-26T22:30:31.886Z,93.10
2019-03-26T22:33:01.368Z,93.10
2019-03-26T22:35:30.073Z,93.10
2019-03-26T22:37:58.488Z,93.50
2019-03-26T22:40:27.504Z,93.30
2019-03-26T22:42:59.359Z,93.30
2019-03-26T22:45:28.829Z,93.40
2019-03-26T22:47:57.304Z,93.40
2019-03-26T22:50:26.465Z,93.50
2019-03-26T22:52:55.534Z,93.50
2019-03-26T22:55:23.984Z,93.60
2019-03-26T22:57:53.075Z,93.70
2019-03-26T23:00:21.872Z,93.70
2019-03-26T23:02:51.005Z,93.80
2019-03-26T23:05:20.074Z,94.00
2019-03-26T23:07:48.875Z,94.10
2019-03-26T23:10:18.036Z,94.00
2019-03-26T23:12:47.260Z,94.00
2019-03-26T23:15:22.334Z,94.10
2019-03-26T23:17:51.187Z,94.20
2019-03-26T23:20:19.974Z,94.60
2019-03-26T23:22:48.536Z,94.50
2019-03-26T23:25:17.345Z,94.60
2019-03-26T23:27:46.140Z,94.50
2019-03-26T23:30:14.990Z,94.70
2019-03-26T23:32:44.548Z,94.90
2019-03-26T23:35:13.505Z,94.90
2019-03-26T23:37:42.193Z,95.10
2019-03-26T23:40:10.927Z,95.30
2019-03-26T23:42:39.545Z,95.30
2019-03-26T23:45:09.190Z,95.40
2019-03-26T23:47:38.051Z,95.50
2019-03-26T23:50:07.278Z,95.50
2019-03-26T23:52:35.875Z,95.50
2019-03-26T23:55:05.787Z,95.60
2019-03-26T23:57:37.276Z,95.60
